Bushmans Kloof Airport


Codes: FABK/
Name: Bushmans Kloof Airport
City: Bushmans Kloof
Country: South Africa
Elevation: 1050 ft.

Photos at Bushmans Kloof Airport


   Photos courtesy of SpottingLog. You can add your own sightings and photos by signing up for a free trial today.



No photos found.

Weather at Bushmans Kloof Airport


Time (UTC)DescriptionTempratureWindCloud coverageVisibilityPressureHumidity
13-Jun-2024 03:00Clear Sky13°C7 mph, E0%10000m1025hPa67%
13-Jun-2024 06:00Clear Sky12°C7 mph, E0%10000m1025hPa68%
13-Jun-2024 09:00Clear Sky17°C9 mph, E2%10000m1025hPa46%
13-Jun-2024 12:00Clear Sky21°C7 mph, E4%10000m1022hPa30%
13-Jun-2024 15:00Clear Sky20°C7 mph, E2%10000m1021hPa32%
13-Jun-2024 18:00Clear Sky17°C9 mph, E1%10000m1022hPa35%
13-Jun-2024 21:00Clear Sky16°C7 mph, E0%10000m1021hPa36%
14-Jun-2024 00:00Clear Sky16°C7 mph, E0%10000m1021hPa36%
14-Jun-2024 03:00Clear Sky15°C7 mph, E0%10000m1020hPa36%
14-Jun-2024 06:00Clear Sky15°C4 mph, E0%10000m1022hPa36%
14-Jun-2024 09:00Clear Sky21°C4 mph, E0%10000m1022hPa27%
14-Jun-2024 12:00Clear Sky24°C4 mph, W0%10000m1019hPa25%
14-Jun-2024 15:00Clear Sky23°C4 mph, SW6%10000m1019hPa31%
14-Jun-2024 18:00Few Clouds18°C4 mph, SW23%10000m1021hPa39%
14-Jun-2024 21:00Few Clouds16°C2 mph, NW15%10000m1021hPa44%
15-Jun-2024 00:00Clear Sky15°C2 mph, NW8%10000m1020hPa49%
15-Jun-2024 03:00Clear Sky14°C0 mph, SE0%10000m1020hPa50%
15-Jun-2024 06:00Clear Sky14°C4 mph, E0%10000m1021hPa47%
15-Jun-2024 09:00Clear Sky21°C4 mph, E7%10000m1021hPa31%
15-Jun-2024 12:00Few Clouds24°C4 mph, E12%10000m1018hPa25%
15-Jun-2024 15:00Scattered Clouds23°C4 mph, SE50%10000m1017hPa31%
15-Jun-2024 18:00Broken Clouds19°C4 mph, E59%10000m1018hPa34%
15-Jun-2024 21:00Overcast Clouds18°C4 mph, E99%10000m1018hPa35%
16-Jun-2024 00:00Overcast Clouds18°C7 mph, E99%10000m1017hPa36%
16-Jun-2024 03:00Overcast Clouds17°C7 mph, E96%10000m1017hPa38%
16-Jun-2024 06:00Overcast Clouds16°C9 mph, E98%10000m1017hPa42%
16-Jun-2024 09:00Overcast Clouds21°C9 mph, E100%10000m1018hPa35%
16-Jun-2024 12:00Overcast Clouds24°C11 mph, E100%10000m1015hPa22%
16-Jun-2024 15:00Overcast Clouds22°C9 mph, SE100%10000m1014hPa28%
16-Jun-2024 18:00Overcast Clouds20°C9 mph, E100%10000m1015hPa28%
16-Jun-2024 21:00Overcast Clouds19°C9 mph, E100%10000m1014hPa28%
17-Jun-2024 00:00Overcast Clouds18°C9 mph, E100%10000m1013hPa29%
17-Jun-2024 03:00Overcast Clouds18°C11 mph, E99%10000m1012hPa29%
17-Jun-2024 06:00Broken Clouds17°C11 mph, E64%10000m1012hPa30%
17-Jun-2024 09:00Clear Sky23°C9 mph, NE10%10000m1012hPa20%
17-Jun-2024 12:00Scattered Clouds22°C9 mph, NW46%10000m1011hPa26%
17-Jun-2024 15:00Scattered Clouds20°C18 mph, NW34%10000m1012hPa45%
17-Jun-2024 18:00Scattered Clouds15°C13 mph, NW29%10000m1015hPa81%
17-Jun-2024 21:00Light Rain15°C11 mph, NW99%10000m1016hPa87%
18-Jun-2024 00:00Light Rain14°C11 mph, NW100%10000m1016hPa89%